sensor_id;sensor_type;location;lat;lon;timestamp;temperature;humidity
43524;DHT22;29120;52.006;6.020;2023-02-15T00:00:05;4.00;98.80
43524;DHT22;29120;52.006;6.020;2023-02-15T00:02:31;4.00;98.90
43524;DHT22;29120;52.006;6.020;2023-02-15T00:04:57;3.90;99.00
43524;DHT22;29120;52.006;6.020;2023-02-15T00:07:22;3.90;99.00
43524;DHT22;29120;52.006;6.020;2023-02-15T00:09:48;3.90;99.10
43524;DHT22;29120;52.006;6.020;2023-02-15T00:12:13;3.90;99.20
43524;DHT22;29120;52.006;6.020;2023-02-15T00:14:39;3.90;99.20
43524;DHT22;29120;52.006;6.020;2023-02-15T00:17:05;3.80;99.50
43524;DHT22;29120;52.006;6.020;2023-02-15T00:19:30;3.80;99.30
43524;DHT22;29120;52.006;6.020;2023-02-15T00:21:56;3.80;99.30
43524;DHT22;29120;52.006;6.020;2023-02-15T00:24:21;3.80;99.40
43524;DHT22;29120;52.006;6.020;2023-02-15T00:26:47;3.80;99.40
43524;DHT22;29120;52.006;6.020;2023-02-15T00:29:13;3.80;99.40
43524;DHT22;29120;52.006;6.020;2023-02-15T00:31:39;3.80;99.40
43524;DHT22;29120;52.006;6.020;2023-02-15T00:34:16;3.80;99.50
43524;DHT22;29120;52.006;6.020;2023-02-15T00:36:42;3.80;99.50
43524;DHT22;29120;52.006;6.020;2023-02-15T00:39:07;3.80;99.50
43524;DHT22;29120;52.006;6.020;2023-02-15T00:41:33;3.70;99.50
43524;DHT22;29120;52.006;6.020;2023-02-15T00:43:58;3.70;99.60
43524;DHT22;29120;52.006;6.020;2023-02-15T00:46:24;3.70;99.60
43524;DHT22;29120;52.006;6.020;2023-02-15T00:48:49;3.60;99.70
43524;DHT22;29120;52.006;6.020;2023-02-15T00:51:15;3.60;99.70
43524;DHT22;29120;52.006;6.020;2023-02-15T00:53:40;3.60;99.80
43524;DHT22;29120;52.006;6.020;2023-02-15T00:56:06;3.50;99.90
43524;DHT22;29120;52.006;6.020;2023-02-15T00:58:31;3.50;99.90
43524;DHT22;29120;52.006;6.020;2023-02-15T01:01:02;3.40;99.90
43524;DHT22;29120;52.006;6.020;2023-02-15T01:03:28;3.40;99.90
43524;DHT22;29120;52.006;6.020;2023-02-15T01:05:53;3.40;99.90
43524;DHT22;29120;52.006;6.020;2023-02-15T01:08:19;3.30;99.90
43524;DHT22;29120;52.006;6.020;2023-02-15T01:10:44;3.30;99.90
43524;DHT22;29120;52.006;6.020;2023-02-15T01:13:12;3.30;99.90
43524;DHT22;29120;52.006;6.020;2023-02-15T01:15:38;3.30;99.90
43524;DHT22;29120;52.006;6.020;2023-02-15T01:18:03;3.30;99.90
43524;DHT22;29120;52.006;6.020;2023-02-15T01:20:29;3.30;99.90
43524;DHT22;29120;52.006;6.020;2023-02-15T01:22:55;3.30;99.90
43524;DHT22;29120;52.006;6.020;2023-02-15T01:25:22;3.30;99.90
43524;DHT22;29120;52.006;6.020;2023-02-15T01:27:48;3.30;99.90
43524;DHT22;29120;52.006;6.020;2023-02-15T01:30:14;3.30;99.90
43524;DHT22;29120;52.006;6.020;2023-02-15T01:32:39;3.30;99.90
43524;DHT22;29120;52.006;6.020;2023-02-15T01:35:05;3.30;99.90
43524;DHT22;29120;52.006;6.020;2023-02-15T01:37:31;3.30;99.90
43524;DHT22;29120;52.006;6.020;2023-02-15T01:39:57;3.20;99.90
43524;DHT22;29120;52.006;6.020;2023-02-15T01:42:25;3.20;99.90
43524;DHT22;29120;52.006;6.020;2023-02-15T01:44:52;3.20;99.90
43524;DHT22;29120;52.006;6.020;2023-02-15T01:47:38;3.10;99.90
43524;DHT22;29120;52.006;6.020;2023-02-15T01:50:07;3.10;99.90
43524;DHT22;29120;52.006;6.020;2023-02-15T01:52:34;3.00;99.90
43524;DHT22;29120;52.006;6.020;2023-02-15T01:55:01;3.00;99.90
43524;DHT22;29120;52.006;6.020;2023-02-15T01:57:27;3.00;99.90
43524;DHT22;29120;52.006;6.020;2023-02-15T01:59:54;3.00;99.90
43524;DHT22;29120;52.006;6.020;2023-02-15T02:02:21;3.00;99.90
43524;DHT22;29120;52.006;6.020;2023-02-15T02:04:51;3.00;99.90
43524;DHT22;29120;52.006;6.020;2023-02-15T02:07:18;3.00;99.90
43524;DHT22;29120;52.006;6.020;2023-02-15T02:09:44;3.00;99.90
43524;DHT22;29120;52.006;6.020;2023-02-15T02:12:10;3.00;99.90
43524;DHT22;29120;52.006;6.020;2023-02-15T02:14:36;3.00;99.90
43524;DHT22;29120;52.006;6.020;2023-02-15T02:19:45;2.90;99.90
43524;DHT22;29120;52.006;6.020;2023-02-15T02:22:30;2.90;99.90
43524;DHT22;29120;52.006;6.020;2023-02-15T02:25:14;2.80;99.90
43524;DHT22;29120;52.006;6.020;2023-02-15T02:33:04;2.70;99.90
43524;DHT22;29120;52.006;6.020;2023-02-15T02:38:10;2.60;99.90
43524;DHT22;29120;52.006;6.020;2023-02-15T02:43:08;2.60;99.90
43524;DHT22;29120;52.006;6.020;2023-02-15T02:45:37;2.50;99.90
43524;DHT22;29120;52.006;6.020;2023-02-15T02:48:08;2.50;99.90
43524;DHT22;29120;52.006;6.020;2023-02-15T02:50:38;2.60;99.90
43524;DHT22;29120;52.006;6.020;2023-02-15T02:53:04;2.50;99.90
43524;DHT22;29120;52.006;6.020;2023-02-15T02:58:11;2.50;99.90
43524;DHT22;29120;52.006;6.020;2023-02-15T03:00:40;2.40;99.90
43524;DHT22;29120;52.006;6.020;2023-02-15T03:03:08;2.40;99.90
43524;DHT22;29120;52.006;6.020;2023-02-15T03:05:37;2.40;99.90
43524;DHT22;29120;52.006;6.020;2023-02-15T03:08:04;2.40;99.90
43524;DHT22;29120;52.006;6.020;2023-02-15T03:10:31;2.30;99.90
43524;DHT22;29120;52.006;6.020;2023-02-15T03:12:57;2.30;99.90
43524;DHT22;29120;52.006;6.020;2023-02-15T03:15:25;2.30;99.90
43524;DHT22;29120;52.006;6.020;2023-02-15T03:17:53;2.30;99.90
43524;DHT22;29120;52.006;6.020;2023-02-15T03:20:29;2.30;99.90
43524;DHT22;29120;52.006;6.020;2023-02-15T03:23:06;2.30;99.90
43524;DHT22;29120;52.006;6.020;2023-02-15T03:25:41;2.30;99.90
43524;DHT22;29120;52.006;6.020;2023-02-15T03:28:09;2.20;99.90
43524;DHT22;29120;52.006;6.020;2023-02-15T03:30:36;2.20;99.90
43524;DHT22;29120;52.006;6.020;2023-02-15T03:33:03;2.20;99.90
43524;DHT22;29120;52.006;6.020;2023-02-15T03:35:39;2.20;99.90
43524;DHT22;29120;52.006;6.020;2023-02-15T03:38:09;2.10;99.90
43524;DHT22;29120;52.006;6.020;2023-02-15T03:40:37;2.10;99.90
43524;DHT22;29120;52.006;6.020;2023-02-15T03:46:52;2.10;99.90
43524;DHT22;29120;52.006;6.020;2023-02-15T03:49:08;2.10;99.90
43524;DHT22;29120;52.006;6.020;2023-02-15T03:51:36;2.10;99.90
43524;DHT22;29120;52.006;6.020;2023-02-15T03:54:07;2.10;99.90
43524;DHT22;29120;52.006;6.020;2023-02-15T03:56:33;2.00;99.90
43524;DHT22;29120;52.006;6.020;2023-02-15T03:58:59;2.10;99.90
43524;DHT22;29120;52.006;6.020;2023-02-15T04:04:25;2.00;99.90
43524;DHT22;29120;52.006;6.020;2023-02-15T04:06:51;2.00;99.90
43524;DHT22;29120;52.006;6.020;2023-02-15T04:09:17;1.90;99.90
43524;DHT22;29120;52.006;6.020;2023-02-15T04:12:01;2.00;99.90
43524;DHT22;29120;52.006;6.020;2023-02-15T04:14:26;1.90;99.90
43524;DHT22;29120;52.006;6.020;2023-02-15T04:17:10;1.90;99.90
43524;DHT22;29120;52.006;6.020;2023-02-15T04:19:36;1.90;99.90
43524;DHT22;29120;52.006;6.020;2023-02-15T04:22:20;1.90;99.90
43524;DHT22;29120;52.006;6.020;2023-02-15T04:25:04;1.90;99.90
43524;DHT22;29120;52.006;6.020;2023-02-15T04:27:39;1.90;99.90
43524;DHT22;29120;52.006;6.020;2023-02-15T04:30:05;1.80;99.90
43524;DHT22;29120;52.006;6.020;2023-02-15T04:32:31;1.80;99.90
43524;DHT22;29120;52.006;6.020;2023-02-15T04:34:57;1.80;99.90
43524;DHT22;29120;52.006;6.020;2023-02-15T04:37:22;1.80;99.90
43524;DHT22;29120;52.006;6.020;2023-02-15T04:39:48;1.70;99.90
43524;DHT22;29120;52.006;6.020;2023-02-15T04:42:15;1.80;99.90
43524;DHT22;29120;52.006;6.020;2023-02-15T04:44:40;1.70;99.90
43524;DHT22;29120;52.006;6.020;2023-02-15T04:47:05;1.70;99.90
43524;DHT22;29120;52.006;6.020;2023-02-15T04:49:31;1.70;99.90
43524;DHT22;29120;52.006;6.020;2023-02-15T04:51:56;1.60;99.90
43524;DHT22;29120;52.006;6.020;2023-02-15T04:54:22;1.60;99.90
43524;DHT22;29120;52.006;6.020;2023-02-15T04:56:47;1.60;99.90
43524;DHT22;29120;52.006;6.020;2023-02-15T04:59:13;1.60;99.90
43524;DHT22;29120;52.006;6.020;2023-02-15T05:01:38;1.60;99.90
43524;DHT22;29120;52.006;6.020;2023-02-15T05:04:04;1.60;99.90
43524;DHT22;29120;52.006;6.020;2023-02-15T05:06:30;1.50;99.90
43524;DHT22;29120;52.006;6.020;2023-02-15T05:08:55;1.50;99.90
43524;DHT22;29120;52.006;6.020;2023-02-15T05:11:21;1.50;99.90
43524;DHT22;29120;52.006;6.020;2023-02-15T05:13:46;1.50;99.90
43524;DHT22;29120;52.006;6.020;2023-02-15T05:16:12;1.50;99.90
43524;DHT22;29120;52.006;6.020;2023-02-15T05:18:38;1.50;99.90
43524;DHT22;29120;52.006;6.020;2023-02-15T05:21:03;1.50;99.90
43524;DHT22;29120;52.006;6.020;2023-02-15T05:23:29;1.50;99.90
43524;DHT22;29120;52.006;6.020;2023-02-15T05:25:55;1.50;99.90
43524;DHT22;29120;52.006;6.020;2023-02-15T05:28:39;1.50;99.90
43524;DHT22;29120;52.006;6.020;2023-02-15T05:33:30;1.50;99.90
43524;DHT22;29120;52.006;6.020;2023-02-15T05:35:55;1.40;99.90
43524;DHT22;29120;52.006;6.020;2023-02-15T05:38:21;1.40;99.90
43524;DHT22;29120;52.006;6.020;2023-02-15T05:40:46;1.40;99.90
43524;DHT22;29120;52.006;6.020;2023-02-15T05:43:12;1.40;99.90
43524;DHT22;29120;52.006;6.020;2023-02-15T05:45:37;1.40;99.90
43524;DHT22;29120;52.006;6.020;2023-02-15T05:48:02;1.30;99.90
43524;DHT22;29120;52.006;6.020;2023-02-15T05:50:28;1.30;99.90
43524;DHT22;29120;52.006;6.020;2023-02-15T05:52:53;1.30;99.90
43524;DHT22;29120;52.006;6.020;2023-02-15T05:55:19;1.30;99.90
43524;DHT22;29120;52.006;6.020;2023-02-15T05:57:45;1.40;99.90
43524;DHT22;29120;52.006;6.020;2023-02-15T06:00:11;1.30;99.90
43524;DHT22;29120;52.006;6.020;2023-02-15T06:02:37;1.30;99.90
43524;DHT22;29120;52.006;6.020;2023-02-15T06:05:03;1.30;99.90
43524;DHT22;29120;52.006;6.020;2023-02-15T06:07:29;1.20;99.90
43524;DHT22;29120;52.006;6.020;2023-02-15T06:09:55;1.20;99.90
43524;DHT22;29120;52.006;6.020;2023-02-15T06:12:20;1.20;99.90
43524;DHT22;29120;52.006;6.020;2023-02-15T06:14:46;1.20;99.90
43524;DHT22;29120;52.006;6.020;2023-02-15T06:17:11;1.20;99.90
43524;DHT22;29120;52.006;6.020;2023-02-15T06:19:36;1.10;99.90
43524;DHT22;29120;52.006;6.020;2023-02-15T06:22:02;1.10;99.90
43524;DHT22;29120;52.006;6.020;2023-02-15T06:24:28;1.10;99.90
43524;DHT22;29120;52.006;6.020;2023-02-15T06:26:53;1.10;99.90
43524;DHT22;29120;52.006;6.020;2023-02-15T06:29:19;1.10;99.90
43524;DHT22;29120;52.006;6.020;2023-02-15T06:31:44;1.10;99.90
43524;DHT22;29120;52.006;6.020;2023-02-15T06:34:10;1.10;99.90
43524;DHT22;29120;52.006;6.020;2023-02-15T06:36:35;1.00;99.90
43524;DHT22;29120;52.006;6.020;2023-02-15T06:39:02;1.10;99.90
43524;DHT22;29120;52.006;6.020;2023-02-15T06:41:28;1.10;99.90
43524;DHT22;29120;52.006;6.020;2023-02-15T06:43:53;1.10;99.90
43524;DHT22;29120;52.006;6.020;2023-02-15T06:46:19;1.10;99.90
43524;DHT22;29120;52.006;6.020;2023-02-15T06:48:44;1.10;99.90
43524;DHT22;29120;52.006;6.020;2023-02-15T06:51:10;1.00;99.90
43524;DHT22;29120;52.006;6.020;2023-02-15T06:53:35;1.10;99.90
43524;DHT22;29120;52.006;6.020;2023-02-15T06:56:01;1.00;99.90
43524;DHT22;29120;52.006;6.020;2023-02-15T06:58:28;1.00;99.90
43524;DHT22;29120;52.006;6.020;2023-02-15T07:00:53;1.00;99.90
43524;DHT22;29120;52.006;6.020;2023-02-15T07:03:19;1.10;99.90
43524;DHT22;29120;52.006;6.020;2023-02-15T07:05:44;1.10;99.90
43524;DHT22;29120;52.006;6.020;2023-02-15T07:08:10;1.10;99.90
43524;DHT22;29120;52.006;6.020;2023-02-15T07:10:36;1.10;99.90
43524;DHT22;29120;52.006;6.020;2023-02-15T07:13:01;1.10;99.90
43524;DHT22;29120;52.006;6.020;2023-02-15T07:15:27;1.20;99.90
43524;DHT22;29120;52.006;6.020;2023-02-15T07:17:52;1.10;99.90
43524;DHT22;29120;52.006;6.020;2023-02-15T07:20:22;1.20;99.90
43524;DHT22;29120;52.006;6.020;2023-02-15T07:22:47;1.20;99.90
43524;DHT22;29120;52.006;6.020;2023-02-15T07:25:13;1.20;99.90
43524;DHT22;29120;52.006;6.020;2023-02-15T07:27:39;1.30;99.90
43524;DHT22;29120;52.006;6.020;2023-02-15T07:30:05;1.30;99.90
43524;DHT22;29120;52.006;6.020;2023-02-15T07:32:31;1.40;99.90
43524;DHT22;29120;52.006;6.020;2023-02-15T07:34:57;1.40;99.90
43524;DHT22;29120;52.006;6.020;2023-02-15T07:37:23;1.50;99.90
43524;DHT22;29120;52.006;6.020;2023-02-15T07:39:48;1.50;99.90
43524;DHT22;29120;52.006;6.020;2023-02-15T07:42:14;1.60;99.90
43524;DHT22;29120;52.006;6.020;2023-02-15T07:44:39;1.70;99.90
43524;DHT22;29120;52.006;6.020;2023-02-15T07:47:05;1.80;99.90
43524;DHT22;29120;52.006;6.020;2023-02-15T07:49:31;1.80;99.90
43524;DHT22;29120;52.006;6.020;2023-02-15T07:51:56;1.90;99.90
43524;DHT22;29120;52.006;6.020;2023-02-15T07:54:22;2.00;99.90
43524;DHT22;29120;52.006;6.020;2023-02-15T07:56:47;2.10;99.90
43524;DHT22;29120;52.006;6.020;2023-02-15T07:59:13;2.30;99.90
43524;DHT22;29120;52.006;6.020;2023-02-15T08:01:38;2.40;99.90
43524;DHT22;29120;52.006;6.020;2023-02-15T08:04:04;2.50;99.90
43524;DHT22;29120;52.006;6.020;2023-02-15T08:06:32;2.60;99.90
43524;DHT22;29120;52.006;6.020;2023-02-15T08:08:57;2.70;99.90
43524;DHT22;29120;52.006;6.020;2023-02-15T08:11:24;2.80;99.90
43524;DHT22;29120;52.006;6.020;2023-02-15T08:14:20;2.90;99.90
43524;DHT22;29120;52.006;6.020;2023-02-15T08:19:17;3.10;99.90
43524;DHT22;29120;52.006;6.020;2023-02-15T08:21:44;3.30;99.90
43524;DHT22;29120;52.006;6.020;2023-02-15T08:24:11;3.40;99.90
43524;DHT22;29120;52.006;6.020;2023-02-15T08:26:36;3.60;99.90
43524;DHT22;29120;52.006;6.020;2023-02-15T08:29:03;3.70;99.90
43524;DHT22;29120;52.006;6.020;2023-02-15T08:31:29;3.80;99.90
43524;DHT22;29120;52.006;6.020;2023-02-15T08:33:54;3.90;99.90
43524;DHT22;29120;52.006;6.020;2023-02-15T08:36:21;4.00;99.90
43524;DHT22;29120;52.006;6.020;2023-02-15T08:38:47;4.10;99.90
43524;DHT22;29120;52.006;6.020;2023-02-15T08:43:38;4.20;99.90
43524;DHT22;29120;52.006;6.020;2023-02-15T08:46:05;4.30;99.90
43524;DHT22;29120;52.006;6.020;2023-02-15T08:48:30;4.40;99.90
43524;DHT22;29120;52.006;6.020;2023-02-15T08:50:56;4.60;99.90
43524;DHT22;29120;52.006;6.020;2023-02-15T08:53:21;4.70;99.90
43524;DHT22;29120;52.006;6.020;2023-02-15T08:55:47;4.70;99.90
43524;DHT22;29120;52.006;6.020;2023-02-15T08:58:25;4.80;99.90
43524;DHT22;29120;52.006;6.020;2023-02-15T09:00:51;5.00;99.90
43524;DHT22;29120;52.006;6.020;2023-02-15T09:03:17;5.10;99.90
43524;DHT22;29120;52.006;6.020;2023-02-15T09:05:42;5.20;99.90
43524;DHT22;29120;52.006;6.020;2023-02-15T09:08:08;5.30;99.90
43524;DHT22;29120;52.006;6.020;2023-02-15T09:10:33;5.50;99.90
43524;DHT22;29120;52.006;6.020;2023-02-15T09:12:59;5.70;99.90
43524;DHT22;29120;52.006;6.020;2023-02-15T09:15:24;6.00;99.90
43524;DHT22;29120;52.006;6.020;2023-02-15T09:17:50;6.10;99.90
43524;DHT22;29120;52.006;6.020;2023-02-15T09:20:15;6.30;99.90
43524;DHT22;29120;52.006;6.020;2023-02-15T09:22:41;6.60;99.90
43524;DHT22;29120;52.006;6.020;2023-02-15T09:25:06;7.60;99.90
43524;DHT22;29120;52.006;6.020;2023-02-15T09:27:32;9.00;98.70
43524;DHT22;29120;52.006;6.020;2023-02-15T09:29:57;10.30;97.10
43524;DHT22;29120;52.006;6.020;2023-02-15T09:32:23;11.40;95.50
43524;DHT22;29120;52.006;6.020;2023-02-15T09:34:48;12.10;94.40
43524;DHT22;29120;52.006;6.020;2023-02-15T09:37:13;12.60;93.70
43524;DHT22;29120;52.006;6.020;2023-02-15T09:39:40;13.10;92.70
43524;DHT22;29120;52.006;6.020;2023-02-15T09:57:21;13.00;91.10
43524;DHT22;29120;52.006;6.020;2023-02-15T10:00:04;13.10;90.50
43524;DHT22;29120;52.006;6.020;2023-02-15T10:05:27;12.40;90.10
43524;DHT22;29120;52.006;6.020;2023-02-15T10:18:38;11.10;91.00
43524;DHT22;29120;52.006;6.020;2023-02-15T10:26:24;10.80;91.40
43524;DHT22;29120;52.006;6.020;2023-02-15T10:33:47;11.40;90.20
43524;DHT22;29120;52.006;6.020;2023-02-15T10:38:40;11.00;90.10
43524;DHT22;29120;52.006;6.020;2023-02-15T10:46:51;11.10;90.50
43524;DHT22;29120;52.006;6.020;2023-02-15T10:59:40;16.80;81.70
43524;DHT22;29120;52.006;6.020;2023-02-15T11:04:55;18.30;75.20
43524;DHT22;29120;52.006;6.020;2023-02-15T11:09:51;19.30;71.70
43524;DHT22;29120;52.006;6.020;2023-02-15T11:12:21;19.70;68.80
43524;DHT22;29120;52.006;6.020;2023-02-15T11:14:52;20.10;66.50
43524;DHT22;29120;52.006;6.020;2023-02-15T11:17:22;20.30;65.60
43524;DHT22;29120;52.006;6.020;2023-02-15T11:19:57;20.50;63.80
43524;DHT22;29120;52.006;6.020;2023-02-15T11:22:25;20.70;60.30
43524;DHT22;29120;52.006;6.020;2023-02-15T11:24:51;21.10;60.60
43524;DHT22;29120;52.006;6.020;2023-02-15T11:30:02;21.80;59.20
43524;DHT22;29120;52.006;6.020;2023-02-15T11:35:04;22.60;57.30
43524;DHT22;29120;52.006;6.020;2023-02-15T11:37:33;22.80;56.20
43524;DHT22;29120;52.006;6.020;2023-02-15T11:40:01;22.80;56.10
43524;DHT22;29120;52.006;6.020;2023-02-15T11:42:28;22.90;55.50
43524;DHT22;29120;52.006;6.020;2023-02-15T11:44:59;23.10;55.30
43524;DHT22;29120;52.006;6.020;2023-02-15T11:47:27;23.50;54.40
43524;DHT22;29120;52.006;6.020;2023-02-15T11:49:52;23.80;53.40
43524;DHT22;29120;52.006;6.020;2023-02-15T11:52:18;23.70;52.40
43524;DHT22;29120;52.006;6.020;2023-02-15T11:54:45;24.00;52.00
43524;DHT22;29120;52.006;6.020;2023-02-15T11:59:37;24.40;50.30
43524;DHT22;29120;52.006;6.020;2023-02-15T12:02:06;24.60;50.80
43524;DHT22;29120;52.006;6.020;2023-02-15T12:04:38;24.40;48.50
43524;DHT22;29120;52.006;6.020;2023-02-15T12:07:20;23.80;49.30
43524;DHT22;29120;52.006;6.020;2023-02-15T12:10:04;23.30;50.30
43524;DHT22;29120;52.006;6.020;2023-02-15T12:12:33;22.80;50.80
43524;DHT22;29120;52.006;6.020;2023-02-15T12:15:06;22.20;51.20
43524;DHT22;29120;52.006;6.020;2023-02-15T12:17:33;21.70;52.30
43524;DHT22;29120;52.006;6.020;2023-02-15T12:20:04;21.70;52.50
43524;DHT22;29120;52.006;6.020;2023-02-15T12:22:31;22.00;52.20
43524;DHT22;29120;52.006;6.020;2023-02-15T12:25:00;22.10;51.70
43524;DHT22;29120;52.006;6.020;2023-02-15T12:27:28;22.20;51.20
43524;DHT22;29120;52.006;6.020;2023-02-15T12:32:24;22.50;50.70
43524;DHT22;29120;52.006;6.020;2023-02-15T12:34:50;22.30;50.00
43524;DHT22;29120;52.006;6.020;2023-02-15T12:37:21;22.20;50.20
43524;DHT22;29120;52.006;6.020;2023-02-15T12:39:52;22.30;49.90
43524;DHT22;29120;52.006;6.020;2023-02-15T12:42:18;22.30;50.30
43524;DHT22;29120;52.006;6.020;2023-02-15T12:47:19;22.00;48.50
43524;DHT22;29120;52.006;6.020;2023-02-15T12:49:45;21.80;49.80
43524;DHT22;29120;52.006;6.020;2023-02-15T12:52:28;22.20;50.10
43524;DHT22;29120;52.006;6.020;2023-02-15T12:54:54;22.70;50.00
43524;DHT22;29120;52.006;6.020;2023-02-15T12:57:52;22.70;49.00
43524;DHT22;29120;52.006;6.020;2023-02-15T13:00:33;22.90;49.60
43524;DHT22;29120;52.006;6.020;2023-02-15T13:02:58;23.20;49.60
43524;DHT22;29120;52.006;6.020;2023-02-15T13:08:01;23.40;48.90
43524;DHT22;29120;52.006;6.020;2023-02-15T13:10:40;23.40;48.80
43524;DHT22;29120;52.006;6.020;2023-02-15T13:13:11;23.60;49.10
43524;DHT22;29120;52.006;6.020;2023-02-15T13:15:43;23.60;48.30
43524;DHT22;29120;52.006;6.020;2023-02-15T13:18:12;23.70;48.80
43524;DHT22;29120;52.006;6.020;2023-02-15T13:20:39;23.80;47.90
43524;DHT22;29120;52.006;6.020;2023-02-15T13:23:08;23.70;47.40
43524;DHT22;29120;52.006;6.020;2023-02-15T13:25:41;23.00;47.00
43524;DHT22;29120;52.006;6.020;2023-02-15T13:28:10;22.20;48.00
43524;DHT22;29120;52.006;6.020;2023-02-15T13:30:38;21.50;49.30
43524;DHT22;29120;52.006;6.020;2023-02-15T13:35:47;20.90;50.50
43524;DHT22;29120;52.006;6.020;2023-02-15T13:38:49;20.50;50.70
43524;DHT22;29120;52.006;6.020;2023-02-15T13:41:09;19.90;51.30
43524;DHT22;29120;52.006;6.020;2023-02-15T13:43:55;19.20;52.30
43524;DHT22;29120;52.006;6.020;2023-02-15T13:49:01;18.50;53.90
43524;DHT22;29120;52.006;6.020;2023-02-15T14:01:58;18.20;55.40
43524;DHT22;29120;52.006;6.020;2023-02-15T14:14:26;17.10;58.40
43524;DHT22;29120;52.006;6.020;2023-02-15T14:19:40;16.60;58.90
43524;DHT22;29120;52.006;6.020;2023-02-15T14:25:06;16.10;59.80
43524;DHT22;29120;52.006;6.020;2023-02-15T14:30:20;15.80;60.90
43524;DHT22;29120;52.006;6.020;2023-02-15T14:32:51;15.60;61.40
43524;DHT22;29120;52.006;6.020;2023-02-15T14:35:22;15.40;61.90
43524;DHT22;29120;52.006;6.020;2023-02-15T14:43:24;15.00;63.50
43524;DHT22;29120;52.006;6.020;2023-02-15T14:45:53;14.90;64.00
43524;DHT22;29120;52.006;6.020;2023-02-15T14:48:20;14.90;64.20
43524;DHT22;29120;52.006;6.020;2023-02-15T14:50:47;14.90;64.50
43524;DHT22;29120;52.006;6.020;2023-02-15T14:55:47;15.00;64.70
43524;DHT22;29120;52.006;6.020;2023-02-15T14:58:13;15.00;64.70
43524;DHT22;29120;52.006;6.020;2023-02-15T15:00:39;15.00;64.90
43524;DHT22;29120;52.006;6.020;2023-02-15T15:03:12;15.00;65.20
43524;DHT22;29120;52.006;6.020;2023-02-15T15:05:47;14.90;65.40
43524;DHT22;29120;52.006;6.020;2023-02-15T15:08:37;14.80;65.80
43524;DHT22;29120;52.006;6.020;2023-02-15T15:13:55;14.60;66.50
43524;DHT22;29120;52.006;6.020;2023-02-15T15:16:31;14.50;66.80
43524;DHT22;29120;52.006;6.020;2023-02-15T15:19:10;14.50;67.20
43524;DHT22;29120;52.006;6.020;2023-02-15T15:24:57;14.40;67.70
43524;DHT22;29120;52.006;6.020;2023-02-15T15:29:41;14.20;68.20
43524;DHT22;29120;52.006;6.020;2023-02-15T15:32:07;14.10;68.50
43524;DHT22;29120;52.006;6.020;2023-02-15T15:37:09;13.90;69.00
43524;DHT22;29120;52.006;6.020;2023-02-15T15:42:17;13.70;69.30
43524;DHT22;29120;52.006;6.020;2023-02-15T15:50:15;13.50;70.00
43524;DHT22;29120;52.006;6.020;2023-02-15T15:52:52;13.40;70.20
43524;DHT22;29120;52.006;6.020;2023-02-15T15:55:19;13.30;70.40
43524;DHT22;29120;52.006;6.020;2023-02-15T15:57:46;13.30;70.60
43524;DHT22;29120;52.006;6.020;2023-02-15T16:02:58;13.20;70.80
43524;DHT22;29120;52.006;6.020;2023-02-15T16:05:24;13.20;71.20
43524;DHT22;29120;52.006;6.020;2023-02-15T16:07:50;13.10;71.60
43524;DHT22;29120;52.006;6.020;2023-02-15T16:10:26;13.10;72.00
43524;DHT22;29120;52.006;6.020;2023-02-15T16:12:52;12.90;72.40
43524;DHT22;29120;52.006;6.020;2023-02-15T16:15:19;12.80;72.80
43524;DHT22;29120;52.006;6.020;2023-02-15T16:17:47;12.70;73.20
43524;DHT22;29120;52.006;6.020;2023-02-15T16:20:15;12.70;73.60
43524;DHT22;29120;52.006;6.020;2023-02-15T16:22:44;12.50;73.90
43524;DHT22;29120;52.006;6.020;2023-02-15T16:27:41;12.40;74.60
43524;DHT22;29120;52.006;6.020;2023-02-15T16:32:55;12.10;75.20
43524;DHT22;29120;52.006;6.020;2023-02-15T16:35:27;12.00;75.60
43524;DHT22;29120;52.006;6.020;2023-02-15T16:37:53;11.90;75.80
43524;DHT22;29120;52.006;6.020;2023-02-15T16:42:57;11.80;76.30
43524;DHT22;29120;52.006;6.020;2023-02-15T16:45:25;11.80;76.60
43524;DHT22;29120;52.006;6.020;2023-02-15T16:47:55;11.70;76.80
43524;DHT22;29120;52.006;6.020;2023-02-15T16:50:32;11.60;76.90
43524;DHT22;29120;52.006;6.020;2023-02-15T16:52:58;11.50;77.10
43524;DHT22;29120;52.006;6.020;2023-02-15T16:55:25;11.50;77.30
43524;DHT22;29120;52.006;6.020;2023-02-15T16:57:51;11.40;77.50
43524;DHT22;29120;52.006;6.020;2023-02-15T17:00:30;11.30;77.80
43524;DHT22;29120;52.006;6.020;2023-02-15T17:02:59;11.30;78.00
43524;DHT22;29120;52.006;6.020;2023-02-15T17:05:32;11.20;78.30
43524;DHT22;29120;52.006;6.020;2023-02-15T17:12:53;11.00;79.20
43524;DHT22;29120;52.006;6.020;2023-02-15T17:17:58;10.80;79.80
43524;DHT22;29120;52.006;6.020;2023-02-15T17:20:25;10.80;80.10
43524;DHT22;29120;52.006;6.020;2023-02-15T17:22:51;10.70;80.30
43524;DHT22;29120;52.006;6.020;2023-02-15T17:25:21;10.60;80.50
43524;DHT22;29120;52.006;6.020;2023-02-15T17:27:53;10.50;80.70
43524;DHT22;29120;52.006;6.020;2023-02-15T17:30:28;10.50;80.90
43524;DHT22;29120;52.006;6.020;2023-02-15T17:32:56;10.40;81.20
43524;DHT22;29120;52.006;6.020;2023-02-15T17:35:23;10.30;81.30
43524;DHT22;29120;52.006;6.020;2023-02-15T17:37:50;10.30;81.60
43524;DHT22;29120;52.006;6.020;2023-02-15T17:40:25;10.20;81.80
43524;DHT22;29120;52.006;6.020;2023-02-15T17:42:51;10.10;82.00
43524;DHT22;29120;52.006;6.020;2023-02-15T17:45:17;10.10;82.30
43524;DHT22;29120;52.006;6.020;2023-02-15T17:47:43;10.00;82.50
43524;DHT22;29120;52.006;6.020;2023-02-15T17:50:23;10.00;82.80
43524;DHT22;29120;52.006;6.020;2023-02-15T17:52:49;9.90;83.00
43524;DHT22;29120;52.006;6.020;2023-02-15T17:55:17;9.80;83.10
43524;DHT22;29120;52.006;6.020;2023-02-15T17:58:03;9.80;83.40
43524;DHT22;29120;52.006;6.020;2023-02-15T18:00:31;9.70;83.60
43524;DHT22;29120;52.006;6.020;2023-02-15T18:03:17;9.70;83.90
43524;DHT22;29120;52.006;6.020;2023-02-15T18:06:02;9.60;84.20
43524;DHT22;29120;52.006;6.020;2023-02-15T18:08:46;9.50;84.40
43524;DHT22;29120;52.006;6.020;2023-02-15T18:11:30;9.50;84.60
43524;DHT22;29120;52.006;6.020;2023-02-15T18:14:08;9.40;84.90
43524;DHT22;29120;52.006;6.020;2023-02-15T18:16:35;9.30;85.10
43524;DHT22;29120;52.006;6.020;2023-02-15T18:19:02;9.20;85.30
43524;DHT22;29120;52.006;6.020;2023-02-15T18:21:29;9.10;85.50
43524;DHT22;29120;52.006;6.020;2023-02-15T18:23:55;9.10;85.80
43524;DHT22;29120;52.006;6.020;2023-02-15T18:26:21;9.00;85.90
43524;DHT22;29120;52.006;6.020;2023-02-15T18:28:47;9.00;86.10
43524;DHT22;29120;52.006;6.020;2023-02-15T18:31:13;8.90;86.80
43524;DHT22;29120;52.006;6.020;2023-02-15T18:33:40;8.90;86.20
43524;DHT22;29120;52.006;6.020;2023-02-15T18:36:07;8.90;86.40
43524;DHT22;29120;52.006;6.020;2023-02-15T18:38:32;8.90;86.40
43524;DHT22;29120;52.006;6.020;2023-02-15T18:40:58;8.80;86.50
43524;DHT22;29120;52.006;6.020;2023-02-15T18:43:24;8.70;86.60
43524;DHT22;29120;52.006;6.020;2023-02-15T18:45:50;8.70;86.90
43524;DHT22;29120;52.006;6.020;2023-02-15T18:48:15;8.60;87.10
43524;DHT22;29120;52.006;6.020;2023-02-15T18:50:41;8.60;87.40
43524;DHT22;29120;52.006;6.020;2023-02-15T18:53:10;8.60;87.70